Archival Weather

Chicago O'Hare International

Chicago, Illinois (KORD)

Report from: Thursday, December 15, 2022 2:51 AM CST
Current time: Friday, June 21, 2024 7:32 PM CDT

Current weather – Weather history – Daily summaries
Weather forecast

Present weatherLight rain
Temperature2.2°C (36.0°F)
Wind chill-0.9°C (30.3°F)
Dew point0.6°C (33.1°F)
Winds 6 kts (3.1 m/s, 6.9 mph) South-Southwest (210°)
Visibility10 mi. (16.1 km)
Clouds Ceiling: Broken clouds 900 ft. (274 m)
Overcast 4,700 ft. (1,433 m)
Altimeter29.42 in.Hg (996 mB)
PrecipitiationTrace
Precip. events Rain began 7:54 AM
Precip last 3 hours0.16 in. (4 mm)
Relative humidity89 %
Density altitude-885 ft. (-270 m)
Sea-level pressure99.7 kPa (997 mB, 29.43 in.Hg)
Remarks Automated weather observing station with precipitation discriminator
Pressure rising, then falling
Flight conditions Instrument Meteorological Conditions
Raw dataKORD 150851Z 21006KT 10SM -RA BKN009 OVC047 02/01 A2942 RMK AO2 RAB0754 SLP965 P0000 60016 T00220006 50002
An error has occurred. This application may no longer respond until reloaded. Reload 🗙